sensor_id;sensor_type;location;lat;lon;timestamp;temperature;humidity
28863;DHT22;15994;51.796;13.006;2023-05-10T00:01:14;11.30;98.80
28863;DHT22;15994;51.796;13.006;2023-05-10T00:03:41;11.30;98.80
28863;DHT22;15994;51.796;13.006;2023-05-10T00:06:07;11.30;99.00
28863;DHT22;15994;51.796;13.006;2023-05-10T00:11:01;11.20;98.70
28863;DHT22;15994;51.796;13.006;2023-05-10T00:13:27;11.10;99.10
28863;DHT22;15994;51.796;13.006;2023-05-10T00:15:54;11.10;99.20
28863;DHT22;15994;51.796;13.006;2023-05-10T00:18:20;11.10;99.30
28863;DHT22;15994;51.796;13.006;2023-05-10T00:20:47;11.00;99.40
28863;DHT22;15994;51.796;13.006;2023-05-10T00:23:14;11.00;99.40
28863;DHT22;15994;51.796;13.006;2023-05-10T00:25:40;11.00;99.50
28863;DHT22;15994;51.796;13.006;2023-05-10T00:28:07;10.90;99.50
28863;DHT22;15994;51.796;13.006;2023-05-10T00:30:33;10.90;99.60
28863;DHT22;15994;51.796;13.006;2023-05-10T00:33:00;10.90;99.70
28863;DHT22;15994;51.796;13.006;2023-05-10T00:35:26;10.90;99.80
28863;DHT22;15994;51.796;13.006;2023-05-10T00:37:53;10.80;99.80
28863;DHT22;15994;51.796;13.006;2023-05-10T00:40:19;10.80;99.90
28863;DHT22;15994;51.796;13.006;2023-05-10T00:42:47;10.70;99.90
28863;DHT22;15994;51.796;13.006;2023-05-10T00:45:13;10.70;99.90
28863;DHT22;15994;51.796;13.006;2023-05-10T00:47:40;10.70;99.90
28863;DHT22;15994;51.796;13.006;2023-05-10T00:50:07;10.70;99.90
28863;DHT22;15994;51.796;13.006;2023-05-10T00:52:34;10.70;99.90
28863;DHT22;15994;51.796;13.006;2023-05-10T00:55:01;10.70;99.90
28863;DHT22;15994;51.796;13.006;2023-05-10T00:57:28;10.60;99.90
28863;DHT22;15994;51.796;13.006;2023-05-10T00:59:55;10.60;99.90
28863;DHT22;15994;51.796;13.006;2023-05-10T01:02:23;10.50;99.90
28863;DHT22;15994;51.796;13.006;2023-05-10T01:04:50;10.50;99.90
28863;DHT22;15994;51.796;13.006;2023-05-10T01:07:17;10.50;99.90
28863;DHT22;15994;51.796;13.006;2023-05-10T01:09:43;10.50;99.90
28863;DHT22;15994;51.796;13.006;2023-05-10T01:12:10;10.40;99.90
28863;DHT22;15994;51.796;13.006;2023-05-10T01:14:37;10.50;99.90
28863;DHT22;15994;51.796;13.006;2023-05-10T01:17:05;10.40;99.90
28863;DHT22;15994;51.796;13.006;2023-05-10T01:19:34;10.40;99.90
28863;DHT22;15994;51.796;13.006;2023-05-10T01:25:26;10.40;99.90
28863;DHT22;15994;51.796;13.006;2023-05-10T01:34:27;10.30;99.90
28863;DHT22;15994;51.796;13.006;2023-05-10T01:37:05;10.30;99.90
28863;DHT22;15994;51.796;13.006;2023-05-10T01:39:55;10.30;99.90
28863;DHT22;15994;51.796;13.006;2023-05-10T01:42:26;10.20;99.90
28863;DHT22;15994;51.796;13.006;2023-05-10T01:45:52;10.10;99.90
28863;DHT22;15994;51.796;13.006;2023-05-10T01:48:21;10.10;99.90
28863;DHT22;15994;51.796;13.006;2023-05-10T01:50:51;10.10;99.90
28863;DHT22;15994;51.796;13.006;2023-05-10T01:53:18;10.00;99.90
28863;DHT22;15994;51.796;13.006;2023-05-10T01:55:49;10.00;99.90
28863;DHT22;15994;51.796;13.006;2023-05-10T01:58:21;10.00;99.90
28863;DHT22;15994;51.796;13.006;2023-05-10T02:00:50;9.90;99.90
28863;DHT22;15994;51.796;13.006;2023-05-10T02:03:18;9.90;99.90
28863;DHT22;15994;51.796;13.006;2023-05-10T02:05:48;9.80;99.90
28863;DHT22;15994;51.796;13.006;2023-05-10T02:08:16;9.80;99.90
28863;DHT22;15994;51.796;13.006;2023-05-10T02:10:45;9.80;99.90
28863;DHT22;15994;51.796;13.006;2023-05-10T02:13:13;9.80;99.90
28863;DHT22;15994;51.796;13.006;2023-05-10T02:15:41;9.80;99.90
28863;DHT22;15994;51.796;13.006;2023-05-10T02:18:10;9.70;99.90
28863;DHT22;15994;51.796;13.006;2023-05-10T02:20:38;9.70;99.90
28863;DHT22;15994;51.796;13.006;2023-05-10T02:23:05;9.70;99.90
28863;DHT22;15994;51.796;13.006;2023-05-10T02:25:33;9.60;99.90
28863;DHT22;15994;51.796;13.006;2023-05-10T02:28:02;9.60;99.90
28863;DHT22;15994;51.796;13.006;2023-05-10T02:30:31;9.60;99.90
28863;DHT22;15994;51.796;13.006;2023-05-10T02:32:59;9.50;99.90
28863;DHT22;15994;51.796;13.006;2023-05-10T02:35:27;9.50;99.90
28863;DHT22;15994;51.796;13.006;2023-05-10T02:37:54;9.50;99.90
28863;DHT22;15994;51.796;13.006;2023-05-10T02:40:23;9.50;99.90
28863;DHT22;15994;51.796;13.006;2023-05-10T02:42:52;9.50;99.90
28863;DHT22;15994;51.796;13.006;2023-05-10T02:45:23;9.60;99.90
28863;DHT22;15994;51.796;13.006;2023-05-10T02:47:50;9.50;99.90
28863;DHT22;15994;51.796;13.006;2023-05-10T02:50:17;9.50;99.90
28863;DHT22;15994;51.796;13.006;2023-05-10T02:52:47;9.50;99.90
28863;DHT22;15994;51.796;13.006;2023-05-10T02:55:20;9.50;99.90
28863;DHT22;15994;51.796;13.006;2023-05-10T02:58:00;9.40;99.90
28863;DHT22;15994;51.796;13.006;2023-05-10T03:00:27;9.40;99.90
28863;DHT22;15994;51.796;13.006;2023-05-10T03:02:54;9.40;99.90
28863;DHT22;15994;51.796;13.006;2023-05-10T03:05:21;9.40;99.90
28863;DHT22;15994;51.796;13.006;2023-05-10T03:07:48;9.40;99.90
28863;DHT22;15994;51.796;13.006;2023-05-10T03:10:14;9.40;99.90
28863;DHT22;15994;51.796;13.006;2023-05-10T03:18:23;9.40;99.90
28863;DHT22;15994;51.796;13.006;2023-05-10T03:20:51;9.40;99.90
28863;DHT22;15994;51.796;13.006;2023-05-10T03:23:27;9.40;99.90
28863;DHT22;15994;51.796;13.006;2023-05-10T03:25:56;9.40;99.90
28863;DHT22;15994;51.796;13.006;2023-05-10T03:28:25;9.40;99.90
28863;DHT22;15994;51.796;13.006;2023-05-10T03:30:53;9.40;99.90
28863;DHT22;15994;51.796;13.006;2023-05-10T03:33:20;9.40;99.90
28863;DHT22;15994;51.796;13.006;2023-05-10T03:35:47;9.50;99.90
28863;DHT22;15994;51.796;13.006;2023-05-10T03:38:13;9.50;99.90
28863;DHT22;15994;51.796;13.006;2023-05-10T03:40:40;9.40;99.90
28863;DHT22;15994;51.796;13.006;2023-05-10T03:43:06;9.40;99.90
28863;DHT22;15994;51.796;13.006;2023-05-10T03:45:33;9.40;99.90
28863;DHT22;15994;51.796;13.006;2023-05-10T03:48:00;9.40;99.90
28863;DHT22;15994;51.796;13.006;2023-05-10T03:50:26;9.40;99.90
28863;DHT22;15994;51.796;13.006;2023-05-10T03:52:53;9.50;99.90
28863;DHT22;15994;51.796;13.006;2023-05-10T03:55:19;9.50;99.90
28863;DHT22;15994;51.796;13.006;2023-05-10T03:57:46;9.50;99.90
28863;DHT22;15994;51.796;13.006;2023-05-10T04:00:15;9.50;99.90
28863;DHT22;15994;51.796;13.006;2023-05-10T04:02:41;9.60;99.90
28863;DHT22;15994;51.796;13.006;2023-05-10T04:05:08;9.60;99.90
28863;DHT22;15994;51.796;13.006;2023-05-10T04:07:35;9.60;99.90
28863;DHT22;15994;51.796;13.006;2023-05-10T04:10:01;9.60;99.90
28863;DHT22;15994;51.796;13.006;2023-05-10T04:12:28;9.70;99.90
28863;DHT22;15994;51.796;13.006;2023-05-10T04:14:55;9.70;99.90
28863;DHT22;15994;51.796;13.006;2023-05-10T04:17:21;9.70;99.90
28863;DHT22;15994;51.796;13.006;2023-05-10T04:19:48;9.80;99.90
28863;DHT22;15994;51.796;13.006;2023-05-10T04:22:15;9.80;99.90
28863;DHT22;15994;51.796;13.006;2023-05-10T04:24:41;9.90;99.90
28863;DHT22;15994;51.796;13.006;2023-05-10T04:27:08;9.90;99.90
28863;DHT22;15994;51.796;13.006;2023-05-10T04:29:35;9.90;99.90
28863;DHT22;15994;51.796;13.006;2023-05-10T04:32:01;9.90;99.90
28863;DHT22;15994;51.796;13.006;2023-05-10T04:34:28;10.00;99.90
28863;DHT22;15994;51.796;13.006;2023-05-10T04:36:55;10.10;99.90
28863;DHT22;15994;51.796;13.006;2023-05-10T04:39:21;10.10;99.90
28863;DHT22;15994;51.796;13.006;2023-05-10T04:41:48;10.10;99.90
28863;DHT22;15994;51.796;13.006;2023-05-10T04:44:15;10.20;99.90
28863;DHT22;15994;51.796;13.006;2023-05-10T04:46:41;10.20;99.90
28863;DHT22;15994;51.796;13.006;2023-05-10T04:49:08;10.30;99.90
28863;DHT22;15994;51.796;13.006;2023-05-10T04:51:34;10.30;99.90
28863;DHT22;15994;51.796;13.006;2023-05-10T04:54:01;10.40;99.90
28863;DHT22;15994;51.796;13.006;2023-05-10T04:56:27;10.50;99.90
28863;DHT22;15994;51.796;13.006;2023-05-10T04:58:54;10.50;99.90
28863;DHT22;15994;51.796;13.006;2023-05-10T05:01:20;10.60;99.90
28863;DHT22;15994;51.796;13.006;2023-05-10T05:03:48;10.60;99.90
28863;DHT22;15994;51.796;13.006;2023-05-10T05:06:14;10.70;99.90
28863;DHT22;15994;51.796;13.006;2023-05-10T05:08:41;10.80;99.90
28863;DHT22;15994;51.796;13.006;2023-05-10T05:11:07;10.80;99.90
28863;DHT22;15994;51.796;13.006;2023-05-10T05:13:34;10.90;99.90
28863;DHT22;15994;51.796;13.006;2023-05-10T05:16:04;11.00;99.90
28863;DHT22;15994;51.796;13.006;2023-05-10T05:18:30;11.00;99.90
28863;DHT22;15994;51.796;13.006;2023-05-10T05:20:57;11.10;99.90
28863;DHT22;15994;51.796;13.006;2023-05-10T05:23:23;11.10;99.90
28863;DHT22;15994;51.796;13.006;2023-05-10T05:25:53;11.20;99.90
28863;DHT22;15994;51.796;13.006;2023-05-10T05:28:21;11.30;99.90
28863;DHT22;15994;51.796;13.006;2023-05-10T05:30:47;11.40;99.90
28863;DHT22;15994;51.796;13.006;2023-05-10T05:33:14;11.50;99.90
28863;DHT22;15994;51.796;13.006;2023-05-10T05:35:41;11.50;99.90
28863;DHT22;15994;51.796;13.006;2023-05-10T05:38:12;11.60;99.90
28863;DHT22;15994;51.796;13.006;2023-05-10T05:40:39;11.70;99.90
28863;DHT22;15994;51.796;13.006;2023-05-10T05:43:05;11.80;99.90
28863;DHT22;15994;51.796;13.006;2023-05-10T05:45:32;12.00;99.90
28863;DHT22;15994;51.796;13.006;2023-05-10T05:47:58;12.10;99.90
28863;DHT22;15994;51.796;13.006;2023-05-10T05:50:25;12.20;99.90
28863;DHT22;15994;51.796;13.006;2023-05-10T05:52:51;12.30;99.90
28863;DHT22;15994;51.796;13.006;2023-05-10T05:55:18;12.40;99.90
28863;DHT22;15994;51.796;13.006;2023-05-10T05:57:44;12.50;99.90
28863;DHT22;15994;51.796;13.006;2023-05-10T06:00:11;12.60;99.90
28863;DHT22;15994;51.796;13.006;2023-05-10T06:02:38;12.70;99.90
28863;DHT22;15994;51.796;13.006;2023-05-10T06:05:05;12.90;99.90
28863;DHT22;15994;51.796;13.006;2023-05-10T06:07:32;12.90;99.90
28863;DHT22;15994;51.796;13.006;2023-05-10T06:09:58;13.10;99.90
28863;DHT22;15994;51.796;13.006;2023-05-10T06:12:25;13.20;99.90
28863;DHT22;15994;51.796;13.006;2023-05-10T06:14:51;13.30;99.90
28863;DHT22;15994;51.796;13.006;2023-05-10T06:17:18;13.30;99.90
28863;DHT22;15994;51.796;13.006;2023-05-10T06:19:44;13.30;99.90
28863;DHT22;15994;51.796;13.006;2023-05-10T06:24:38;13.30;99.20
28863;DHT22;15994;51.796;13.006;2023-05-10T06:27:05;13.40;99.50
28863;DHT22;15994;51.796;13.006;2023-05-10T06:29:32;13.50;99.60
28863;DHT22;15994;51.796;13.006;2023-05-10T06:31:59;13.60;99.90
28863;DHT22;15994;51.796;13.006;2023-05-10T06:34:25;13.60;99.90
28863;DHT22;15994;51.796;13.006;2023-05-10T06:36:52;13.60;99.90
28863;DHT22;15994;51.796;13.006;2023-05-10T06:39:18;13.70;99.90
28863;DHT22;15994;51.796;13.006;2023-05-10T06:41:45;13.80;99.90
28863;DHT22;15994;51.796;13.006;2023-05-10T06:44:12;14.00;99.90
28863;DHT22;15994;51.796;13.006;2023-05-10T06:46:39;14.00;99.60
28863;DHT22;15994;51.796;13.006;2023-05-10T06:49:07;14.10;99.90
28863;DHT22;15994;51.796;13.006;2023-05-10T06:51:33;14.20;99.50
28863;DHT22;15994;51.796;13.006;2023-05-10T06:54:00;14.30;99.90
28863;DHT22;15994;51.796;13.006;2023-05-10T06:56:27;14.30;99.60
28863;DHT22;15994;51.796;13.006;2023-05-10T06:58:53;14.50;99.90
28863;DHT22;15994;51.796;13.006;2023-05-10T07:01:21;14.60;99.40
28863;DHT22;15994;51.796;13.006;2023-05-10T07:03:47;14.60;99.40
28863;DHT22;15994;51.796;13.006;2023-05-10T07:06:14;14.80;99.40
28863;DHT22;15994;51.796;13.006;2023-05-10T07:08:40;14.80;99.20
28863;DHT22;15994;51.796;13.006;2023-05-10T07:11:07;14.90;99.00
28863;DHT22;15994;51.796;13.006;2023-05-10T07:13:34;15.00;98.20
28863;DHT22;15994;51.796;13.006;2023-05-10T07:16:01;15.10;98.10
28863;DHT22;15994;51.796;13.006;2023-05-10T07:18:28;15.10;98.40
28863;DHT22;15994;51.796;13.006;2023-05-10T07:20:55;15.20;98.50
28863;DHT22;15994;51.796;13.006;2023-05-10T07:23:22;15.30;98.60
28863;DHT22;15994;51.796;13.006;2023-05-10T07:25:50;15.40;99.20
28863;DHT22;15994;51.796;13.006;2023-05-10T07:28:17;15.50;98.50
28863;DHT22;15994;51.796;13.006;2023-05-10T07:30:44;15.60;98.20
28863;DHT22;15994;51.796;13.006;2023-05-10T07:33:14;15.60;98.90
28863;DHT22;15994;51.796;13.006;2023-05-10T07:35:40;15.70;98.40
28863;DHT22;15994;51.796;13.006;2023-05-10T07:38:07;15.80;98.80
28863;DHT22;15994;51.796;13.006;2023-05-10T07:40:36;15.80;97.80
28863;DHT22;15994;51.796;13.006;2023-05-10T07:43:02;15.90;97.50
28863;DHT22;15994;51.796;13.006;2023-05-10T07:45:29;15.90;98.00
28863;DHT22;15994;51.796;13.006;2023-05-10T07:47:55;16.00;97.50
28863;DHT22;15994;51.796;13.006;2023-05-10T07:50:22;16.00;97.50
28863;DHT22;15994;51.796;13.006;2023-05-10T07:52:49;16.20;97.40
28863;DHT22;15994;51.796;13.006;2023-05-10T07:55:15;16.20;97.20
28863;DHT22;15994;51.796;13.006;2023-05-10T07:57:42;16.30;96.90
28863;DHT22;15994;51.796;13.006;2023-05-10T08:00:11;16.30;97.00
28863;DHT22;15994;51.796;13.006;2023-05-10T08:02:38;16.40;97.30
28863;DHT22;15994;51.796;13.006;2023-05-10T08:05:05;16.40;97.00
28863;DHT22;15994;51.796;13.006;2023-05-10T08:07:32;16.40;97.10
28863;DHT22;15994;51.796;13.006;2023-05-10T08:09:58;16.50;97.50
28863;DHT22;15994;51.796;13.006;2023-05-10T08:12:25;16.70;96.40
28863;DHT22;15994;51.796;13.006;2023-05-10T08:14:51;16.80;96.50
28863;DHT22;15994;51.796;13.006;2023-05-10T08:17:18;16.80;96.70
28863;DHT22;15994;51.796;13.006;2023-05-10T08:19:45;17.00;96.50
28863;DHT22;15994;51.796;13.006;2023-05-10T08:22:12;17.00;96.20
28863;DHT22;15994;51.796;13.006;2023-05-10T08:24:38;17.00;96.40
28863;DHT22;15994;51.796;13.006;2023-05-10T08:27:07;17.10;96.50
28863;DHT22;15994;51.796;13.006;2023-05-10T08:29:34;17.10;96.20
28863;DHT22;15994;51.796;13.006;2023-05-10T08:32:01;17.20;96.40
28863;DHT22;15994;51.796;13.006;2023-05-10T08:34:27;17.20;95.90
28863;DHT22;15994;51.796;13.006;2023-05-10T08:36:54;17.20;96.50
28863;DHT22;15994;51.796;13.006;2023-05-10T08:39:20;17.40;96.90
28863;DHT22;15994;51.796;13.006;2023-05-10T08:41:48;17.60;97.80
28863;DHT22;15994;51.796;13.006;2023-05-10T08:44:16;17.80;96.30
28863;DHT22;15994;51.796;13.006;2023-05-10T08:46:46;17.80;95.70
28863;DHT22;15994;51.796;13.006;2023-05-10T08:49:14;17.90;96.00
28863;DHT22;15994;51.796;13.006;2023-05-10T08:51:47;18.00;95.70
28863;DHT22;15994;51.796;13.006;2023-05-10T08:54:15;18.10;95.70
28863;DHT22;15994;51.796;13.006;2023-05-10T08:56:42;18.20;95.90
28863;DHT22;15994;51.796;13.006;2023-05-10T08:59:08;18.20;96.10
28863;DHT22;15994;51.796;13.006;2023-05-10T09:01:36;18.20;96.10
28863;DHT22;15994;51.796;13.006;2023-05-10T09:04:03;18.20;95.70
28863;DHT22;15994;51.796;13.006;2023-05-10T09:06:30;18.30;96.30
28863;DHT22;15994;51.796;13.006;2023-05-10T09:08:57;18.30;96.30
28863;DHT22;15994;51.796;13.006;2023-05-10T09:11:24;18.40;95.30
28863;DHT22;15994;51.796;13.006;2023-05-10T09:13:52;18.40;96.00
28863;DHT22;15994;51.796;13.006;2023-05-10T09:16:19;18.50;96.60
28863;DHT22;15994;51.796;13.006;2023-05-10T09:18:45;18.50;96.00
28863;DHT22;15994;51.796;13.006;2023-05-10T09:21:12;18.60;95.60
28863;DHT22;15994;51.796;13.006;2023-05-10T09:23:43;18.70;96.90
28863;DHT22;15994;51.796;13.006;2023-05-10T09:26:10;19.00;97.40
28863;DHT22;15994;51.796;13.006;2023-05-10T09:31:17;19.00;99.00
28863;DHT22;15994;51.796;13.006;2023-05-10T09:33:45;19.10;99.20
28863;DHT22;15994;51.796;13.006;2023-05-10T09:36:12;19.30;98.90
28863;DHT22;15994;51.796;13.006;2023-05-10T09:38:49;19.30;99.70
28863;DHT22;15994;51.796;13.006;2023-05-10T09:41:23;19.30;96.30
28863;DHT22;15994;51.796;13.006;2023-05-10T09:43:55;19.30;95.50
28863;DHT22;15994;51.796;13.006;2023-05-10T09:46:22;19.20;95.10
28863;DHT22;15994;51.796;13.006;2023-05-10T09:48:49;19.30;96.60
28863;DHT22;15994;51.796;13.006;2023-05-10T09:51:22;19.40;97.80
28863;DHT22;15994;51.796;13.006;2023-05-10T09:54:17;19.50;98.00
28863;DHT22;15994;51.796;13.006;2023-05-10T09:56:44;19.60;95.60
28863;DHT22;15994;51.796;13.006;2023-05-10T09:59:11;19.60;96.20
28863;DHT22;15994;51.796;13.006;2023-05-10T10:01:38;19.80;96.90
28863;DHT22;15994;51.796;13.006;2023-05-10T10:04:07;19.80;98.20
28863;DHT22;15994;51.796;13.006;2023-05-10T10:06:39;19.90;98.50
28863;DHT22;15994;51.796;13.006;2023-05-10T10:09:07;19.90;98.50
28863;DHT22;15994;51.796;13.006;2023-05-10T10:11:38;20.00;99.90
28863;DHT22;15994;51.796;13.006;2023-05-10T10:14:06;20.00;99.90
28863;DHT22;15994;51.796;13.006;2023-05-10T10:16:33;20.20;99.90
28863;DHT22;15994;51.796;13.006;2023-05-10T10:19:00;20.30;99.90
28863;DHT22;15994;51.796;13.006;2023-05-10T10:21:27;20.30;99.90
28863;DHT22;15994;51.796;13.006;2023-05-10T10:23:54;20.50;99.90
28863;DHT22;15994;51.796;13.006;2023-05-10T10:26:21;20.50;99.90
28863;DHT22;15994;51.796;13.006;2023-05-10T10:29:00;20.40;99.90
28863;DHT22;15994;51.796;13.006;2023-05-10T10:34:28;20.40;99.90
28863;DHT22;15994;51.796;13.006;2023-05-10T10:36:56;20.50;99.90
28863;DHT22;15994;51.796;13.006;2023-05-10T10:39:24;20.90;99.90
28863;DHT22;15994;51.796;13.006;2023-05-10T10:41:56;21.10;99.90
28863;DHT22;15994;51.796;13.006;2023-05-10T10:49:43;21.20;99.90
28863;DHT22;15994;51.796;13.006;2023-05-10T10:52:24;21.20;99.00
28863;DHT22;15994;51.796;13.006;2023-05-10T10:55:11;21.10;99.90
28863;DHT22;15994;51.796;13.006;2023-05-10T11:00:21;20.80;99.90
28863;DHT22;15994;51.796;13.006;2023-05-10T11:03:14;20.90;99.90
28863;DHT22;15994;51.796;13.006;2023-05-10T11:05:48;21.00;99.90
28863;DHT22;15994;51.796;13.006;2023-05-10T11:10:51;20.90;99.90
28863;DHT22;15994;51.796;13.006;2023-05-10T11:13:28;21.10;99.90
28863;DHT22;15994;51.796;13.006;2023-05-10T11:15:56;21.10;99.90
28863;DHT22;15994;51.796;13.006;2023-05-10T11:18:29;21.20;99.90
28863;DHT22;15994;51.796;13.006;2023-05-10T11:21:00;21.40;99.90
28863;DHT22;15994;51.796;13.006;2023-05-10T11:26:09;21.90;99.90
28863;DHT22;15994;51.796;13.006;2023-05-10T11:28:44;21.90;99.90
28863;DHT22;15994;51.796;13.006;2023-05-10T11:31:14;21.90;99.90
28863;DHT22;15994;51.796;13.006;2023-05-10T11:33:50;21.90;99.90
28863;DHT22;15994;51.796;13.006;2023-05-10T11:36:22;22.10;99.90
28863;DHT22;15994;51.796;13.006;2023-05-10T11:38:50;21.90;99.90
28863;DHT22;15994;51.796;13.006;2023-05-10T11:41:18;21.90;99.90
28863;DHT22;15994;51.796;13.006;2023-05-10T11:43:49;21.60;99.90
28863;DHT22;15994;51.796;13.006;2023-05-10T11:48:52;22.40;99.90
28863;DHT22;15994;51.796;13.006;2023-05-10T12:01:21;23.40;94.20
28863;DHT22;15994;51.796;13.006;2023-05-10T12:03:49;23.00;94.70
28863;DHT22;15994;51.796;13.006;2023-05-10T12:06:17;22.80;95.80
28863;DHT22;15994;51.796;13.006;2023-05-10T12:08:48;22.50;95.80
28863;DHT22;15994;51.796;13.006;2023-05-10T12:11:17;22.70;96.20
28863;DHT22;15994;51.796;13.006;2023-05-10T12:13:44;22.60;96.40
28863;DHT22;15994;51.796;13.006;2023-05-10T12:16:13;22.70;95.70
28863;DHT22;15994;51.796;13.006;2023-05-10T12:18:41;22.50;96.00
28863;DHT22;15994;51.796;13.006;2023-05-10T12:21:09;22.40;95.90
28863;DHT22;15994;51.796;13.006;2023-05-10T12:23:36;22.50;96.20
28863;DHT22;15994;51.796;13.006;2023-05-10T12:26:03;22.30;96.40
28863;DHT22;15994;51.796;13.006;2023-05-10T12:28:31;22.30;96.70
28863;DHT22;15994;51.796;13.006;2023-05-10T12:30:59;22.20;96.80
28863;DHT22;15994;51.796;13.006;2023-05-10T12:33:26;22.20;96.70
28863;DHT22;15994;51.796;13.006;2023-05-10T12:35:54;21.80;97.00
28863;DHT22;15994;51.796;13.006;2023-05-10T12:38:34;21.70;97.20
28863;DHT22;15994;51.796;13.006;2023-05-10T12:41:05;21.40;97.50
28863;DHT22;15994;51.796;13.006;2023-05-10T12:43:32;21.40;97.50
28863;DHT22;15994;51.796;13.006;2023-05-10T12:46:08;21.40;97.40
28863;DHT22;15994;51.796;13.006;2023-05-10T12:48:35;21.30;97.90
28863;DHT22;15994;51.796;13.006;2023-05-10T12:51:04;21.50;97.60
28863;DHT22;15994;51.796;13.006;2023-05-10T12:53:31;21.60;97.60
28863;DHT22;15994;51.796;13.006;2023-05-10T12:55:57;21.70;97.60
28863;DHT22;15994;51.796;13.006;2023-05-10T12:58:24;21.80;97.50
28863;DHT22;15994;51.796;13.006;2023-05-10T13:00:50;22.20;98.20
28863;DHT22;15994;51.796;13.006;2023-05-10T13:03:17;22.40;96.90
28863;DHT22;15994;51.796;13.006;2023-05-10T13:05:44;22.30;97.10
28863;DHT22;15994;51.796;13.006;2023-05-10T13:08:11;22.30;96.60
28863;DHT22;15994;51.796;13.006;2023-05-10T13:10:37;22.40;97.00
28863;DHT22;15994;51.796;13.006;2023-05-10T13:13:04;22.40;97.30
28863;DHT22;15994;51.796;13.006;2023-05-10T13:15:30;22.50;97.20
28863;DHT22;15994;51.796;13.006;2023-05-10T13:17:57;22.40;97.20
28863;DHT22;15994;51.796;13.006;2023-05-10T13:20:24;22.40;97.10
28863;DHT22;15994;51.796;13.006;2023-05-10T13:22:51;22.40;97.50
28863;DHT22;15994;51.796;13.006;2023-05-10T13:25:17;22.50;98.20
28863;DHT22;15994;51.796;13.006;2023-05-10T13:27:44;22.10;98.30
28863;DHT22;15994;51.796;13.006;2023-05-10T13:30:11;22.00;98.70
28863;DHT22;15994;51.796;13.006;2023-05-10T13:32:38;21.70;98.40
28863;DHT22;15994;51.796;13.006;2023-05-10T13:35:05;21.60;98.20
28863;DHT22;15994;51.796;13.006;2023-05-10T13:37:32;21.70;98.60
28863;DHT22;15994;51.796;13.006;2023-05-10T13:40:00;21.80;98.50
28863;DHT22;15994;51.796;13.006;2023-05-10T13:42:27;21.80;98.80
28863;DHT22;15994;51.796;13.006;2023-05-10T13:44:53;21.90;98.60
28863;DHT22;15994;51.796;13.006;2023-05-10T13:47:20;21.90;98.70
28863;DHT22;15994;51.796;13.006;2023-05-10T13:49:47;22.10;98.90
28863;DHT22;15994;51.796;13.006;2023-05-10T13:52:14;22.20;98.90
28863;DHT22;15994;51.796;13.006;2023-05-10T13:54:40;22.30;97.80
28863;DHT22;15994;51.796;13.006;2023-05-10T13:57:07;22.20;98.40
28863;DHT22;15994;51.796;13.006;2023-05-10T13:59:33;21.90;98.60
28863;DHT22;15994;51.796;13.006;2023-05-10T14:02:00;21.90;99.00
28863;DHT22;15994;51.796;13.006;2023-05-10T14:04:28;22.00;98.80
28863;DHT22;15994;51.796;13.006;2023-05-10T14:06:54;22.00;99.00
28863;DHT22;15994;51.796;13.006;2023-05-10T14:09:21;22.20;99.40
28863;DHT22;15994;51.796;13.006;2023-05-10T14:11:47;22.10;98.60
28863;DHT22;15994;51.796;13.006;2023-05-10T14:14:14;21.70;99.00
28863;DHT22;15994;51.796;13.006;2023-05-10T14:16:44;21.40;99.50
28863;DHT22;15994;51.796;13.006;2023-05-10T14:19:11;21.50;99.30
28863;DHT22;15994;51.796;13.006;2023-05-10T14:21:38;21.60;99.90
28863;DHT22;15994;51.796;13.006;2023-05-10T14:24:04;21.60;99.80
28863;DHT22;15994;51.796;13.006;2023-05-10T14:26:32;21.80;99.60
28863;DHT22;15994;51.796;13.006;2023-05-10T14:28:59;22.00;99.70
28863;DHT22;15994;51.796;13.006;2023-05-10T14:31:26;21.90;99.20
28863;DHT22;15994;51.796;13.006;2023-05-10T14:33:53;21.70;99.00
28863;DHT22;15994;51.796;13.006;2023-05-10T14:36:19;21.90;99.20
28863;DHT22;15994;51.796;13.006;2023-05-10T14:38:46;21.70;99.20
28863;DHT22;15994;51.796;13.006;2023-05-10T14:41:12;21.80;99.60
28863;DHT22;15994;51.796;13.006;2023-05-10T14:43:40;21.80;99.60
28863;DHT22;15994;51.796;13.006;2023-05-10T14:46:07;21.60;99.90
28863;DHT22;15994;51.796;13.006;2023-05-10T14:48:34;21.40;99.90
28863;DHT22;15994;51.796;13.006;2023-05-10T14:51:00;21.50;99.90
28863;DHT22;15994;51.796;13.006;2023-05-10T14:53:27;21.60;99.40
28863;DHT22;15994;51.796;13.006;2023-05-10T14:55:53;21.70;99.70
28863;DHT22;15994;51.796;13.006;2023-05-10T14:58:20;21.80;99.90
28863;DHT22;15994;51.796;13.006;2023-05-10T15:00:46;21.90;99.60
28863;DHT22;15994;51.796;13.006;2023-05-10T15:03:13;21.90;99.30
28863;DHT22;15994;51.796;13.006;2023-05-10T15:05:39;21.70;99.20
28863;DHT22;15994;51.796;13.006;2023-05-10T15:08:06;21.70;99.50
28863;DHT22;15994;51.796;13.006;2023-05-10T15:10:32;21.50;99.30
28863;DHT22;15994;51.796;13.006;2023-05-10T15:12:59;21.40;99.50
28863;DHT22;15994;51.796;13.006;2023-05-10T15:15:26;21.30;99.80
28863;DHT22;15994;51.796;13.006;2023-05-10T15:17:52;21.40;99.70
28863;DHT22;15994;51.796;13.006;2023-05-10T15:20:19;21.60;99.90
28863;DHT22;15994;51.796;13.006;2023-05-10T15:22:45;21.70;99.90
28863;DHT22;15994;51.796;13.006;2023-05-10T15:25:13;21.90;99.50
28863;DHT22;15994;51.796;13.006;2023-05-10T15:27:40;21.80;99.50
28863;DHT22;15994;51.796;13.006;2023-05-10T15:30:09;21.70;99.50
28863;DHT22;15994;51.796;13.006;2023-05-10T15:32:36;21.70;99.40
28863;DHT22;15994;51.796;13.006;2023-05-10T15:35:02;21.70;99.00
28863;DHT22;15994;51.796;13.006;2023-05-10T15:37:29;21.70;99.30
28863;DHT22;15994;51.796;13.006;2023-05-10T15:39:56;21.60;99.30
28863;DHT22;15994;51.796;13.006;2023-05-10T15:42:28;21.70;99.90
28863;DHT22;15994;51.796;13.006;2023-05-10T15:44:55;21.60;99.90
28863;DHT22;15994;51.796;13.006;2023-05-10T15:47:21;21.70;99.90
28863;DHT22;15994;51.796;13.006;2023-05-10T15:49:48;21.50;99.90
28863;DHT22;15994;51.796;13.006;2023-05-10T15:52:14;21.30;99.90
28863;DHT22;15994;51.796;13.006;2023-05-10T15:54:41;21.10;99.90
28863;DHT22;15994;51.796;13.006;2023-05-10T15:57:07;21.10;99.90
28863;DHT22;15994;51.796;13.006;2023-05-10T15:59:34;21.00;99.90
28863;DHT22;15994;51.796;13.006;2023-05-10T16:02:01;21.00;99.90
28863;DHT22;15994;51.796;13.006;2023-05-10T16:04:28;20.90;99.90
28863;DHT22;15994;51.796;13.006;2023-05-10T16:06:55;20.70;99.90
28863;DHT22;15994;51.796;13.006;2023-05-10T16:09:21;20.50;99.90
28863;DHT22;15994;51.796;13.006;2023-05-10T16:11:48;20.50;99.90
28863;DHT22;15994;51.796;13.006;2023-05-10T16:14:14;20.60;99.90